sensor_id;sensor_type;location;lat;lon;timestamp;P1;durP1;ratioP1;P2;durP2;ratioP2
75837;SDS011;64480;52.040;113.502;2023-12-28T00:01:53;69.63;;;40.40;;
75837;SDS011;64480;52.040;113.502;2023-12-28T00:04:56;70.78;;;36.50;;
75837;SDS011;64480;52.040;113.502;2023-12-28T00:07:59;86.25;;;51.92;;
75837;SDS011;64480;52.040;113.502;2023-12-28T00:11:02;69.40;;;38.47;;
75837;SDS011;64480;52.040;113.502;2023-12-28T00:14:06;79.70;;;46.40;;
75837;SDS011;64480;52.040;113.502;2023-12-28T00:17:10;91.18;;;46.05;;
75837;SDS011;64480;52.040;113.502;2023-12-28T00:20:15;81.35;;;47.72;;
75837;SDS011;64480;52.040;113.502;2023-12-28T00:23:19;110.30;;;57.30;;
75837;SDS011;64480;52.040;113.502;2023-12-28T00:26:23;122.03;;;57.85;;
75837;SDS011;64480;52.040;113.502;2023-12-28T00:29:38;127.55;;;58.97;;
75837;SDS011;64480;52.040;113.502;2023-12-28T00:32:41;137.50;;;67.60;;
75837;SDS011;64480;52.040;113.502;2023-12-28T00:35:46;122.40;;;58.92;;
75837;SDS011;64480;52.040;113.502;2023-12-28T00:38:49;182.98;;;76.03;;
75837;SDS011;64480;52.040;113.502;2023-12-28T00:41:53;86.50;;;45.42;;
75837;SDS011;64480;52.040;113.502;2023-12-28T00:44:56;264.90;;;103.78;;
75837;SDS011;64480;52.040;113.502;2023-12-28T00:48:02;113.32;;;60.53;;
75837;SDS011;64480;52.040;113.502;2023-12-28T00:51:06;104.97;;;53.05;;
75837;SDS011;64480;52.040;113.502;2023-12-28T00:54:09;94.57;;;49.17;;
75837;SDS011;64480;52.040;113.502;2023-12-28T01:00:21;109.97;;;55.28;;
75837;SDS011;64480;52.040;113.502;2023-12-28T01:03:24;99.80;;;47.17;;
75837;SDS011;64480;52.040;113.502;2023-12-28T01:06:27;162.13;;;66.65;;
75837;SDS011;64480;52.040;113.502;2023-12-28T01:09:31;162.15;;;58.10;;
75837;SDS011;64480;52.040;113.502;2023-12-28T01:12:37;103.75;;;51.75;;
75837;SDS011;64480;52.040;113.502;2023-12-28T01:15:41;130.70;;;62.13;;
75837;SDS011;64480;52.040;113.502;2023-12-28T01:18:45;268.08;;;99.22;;
75837;SDS011;64480;52.040;113.502;2023-12-28T01:21:52;81.03;;;43.78;;
75837;SDS011;64480;52.040;113.502;2023-12-28T01:24:56;146.73;;;58.60;;
75837;SDS011;64480;52.040;113.502;2023-12-28T01:28:00;100.28;;;44.45;;
75837;SDS011;64480;52.040;113.502;2023-12-28T01:31:05;74.97;;;48.55;;
75837;SDS011;64480;52.040;113.502;2023-12-28T01:34:09;66.15;;;39.92;;
75837;SDS011;64480;52.040;113.502;2023-12-28T01:37:15;124.82;;;63.17;;
75837;SDS011;64480;52.040;113.502;2023-12-28T01:40:19;115.68;;;56.17;;
75837;SDS011;64480;52.040;113.502;2023-12-28T01:43:27;105.60;;;56.20;;
75837;SDS011;64480;52.040;113.502;2023-12-28T01:46:30;164.38;;;77.15;;
75837;SDS011;64480;52.040;113.502;2023-12-28T01:49:35;101.30;;;50.08;;
75837;SDS011;64480;52.040;113.502;2023-12-28T01:52:40;112.70;;;58.03;;
75837;SDS011;64480;52.040;113.502;2023-12-28T01:55:44;78.80;;;41.17;;
75837;SDS011;64480;52.040;113.502;2023-12-28T01:58:49;99.30;;;49.63;;
75837;SDS011;64480;52.040;113.502;2023-12-28T02:01:55;99.30;;;47.70;;
75837;SDS011;64480;52.040;113.502;2023-12-28T02:04:58;103.40;;;42.88;;
75837;SDS011;64480;52.040;113.502;2023-12-28T02:08:02;83.78;;;51.10;;
75837;SDS011;64480;52.040;113.502;2023-12-28T02:11:08;110.05;;;52.17;;
75837;SDS011;64480;52.040;113.502;2023-12-28T02:14:12;90.72;;;45.85;;
75837;SDS011;64480;52.040;113.502;2023-12-28T02:17:30;71.68;;;37.13;;
75837;SDS011;64480;52.040;113.502;2023-12-28T02:20:39;60.00;;;41.63;;
75837;SDS011;64480;52.040;113.502;2023-12-28T02:23:47;68.13;;;42.60;;
75837;SDS011;64480;52.040;113.502;2023-12-28T02:26:53;83.05;;;47.17;;
75837;SDS011;64480;52.040;113.502;2023-12-28T02:29:57;100.82;;;50.30;;
75837;SDS011;64480;52.040;113.502;2023-12-28T02:33:10;110.18;;;54.35;;
75837;SDS011;64480;52.040;113.502;2023-12-28T02:36:18;101.93;;;49.90;;
75837;SDS011;64480;52.040;113.502;2023-12-28T02:39:24;87.85;;;42.17;;
75837;SDS011;64480;52.040;113.502;2023-12-28T02:42:30;103.18;;;51.03;;
75837;SDS011;64480;52.040;113.502;2023-12-28T02:45:35;77.88;;;39.45;;
75837;SDS011;64480;52.040;113.502;2023-12-28T02:48:39;91.15;;;50.25;;
75837;SDS011;64480;52.040;113.502;2023-12-28T02:51:43;90.50;;;49.88;;
75837;SDS011;64480;52.040;113.502;2023-12-28T02:54:46;116.32;;;51.42;;
75837;SDS011;64480;52.040;113.502;2023-12-28T02:57:51;88.60;;;53.00;;
75837;SDS011;64480;52.040;113.502;2023-12-28T03:00:57;126.55;;;61.38;;
75837;SDS011;64480;52.040;113.502;2023-12-28T03:04:01;194.73;;;81.65;;
75837;SDS011;64480;52.040;113.502;2023-12-28T03:07:07;183.73;;;82.05;;
75837;SDS011;64480;52.040;113.502;2023-12-28T03:10:10;141.13;;;65.55;;
75837;SDS011;64480;52.040;113.502;2023-12-28T03:13:16;180.32;;;74.45;;
75837;SDS011;64480;52.040;113.502;2023-12-28T03:16:20;213.55;;;88.68;;
75837;SDS011;64480;52.040;113.502;2023-12-28T03:19:25;164.57;;;71.03;;
75837;SDS011;64480;52.040;113.502;2023-12-28T03:22:28;148.93;;;64.22;;
75837;SDS011;64480;52.040;113.502;2023-12-28T03:25:31;184.93;;;84.70;;
75837;SDS011;64480;52.040;113.502;2023-12-28T03:28:36;144.05;;;64.38;;
75837;SDS011;64480;52.040;113.502;2023-12-28T03:31:41;278.88;;;112.75;;
75837;SDS011;64480;52.040;113.502;2023-12-28T03:34:44;213.68;;;97.60;;
75837;SDS011;64480;52.040;113.502;2023-12-28T03:37:51;190.48;;;82.22;;
75837;SDS011;64480;52.040;113.502;2023-12-28T03:40:55;169.75;;;72.93;;
75837;SDS011;64480;52.040;113.502;2023-12-28T03:44:01;123.00;;;69.35;;
75837;SDS011;64480;52.040;113.502;2023-12-28T03:47:04;232.25;;;104.13;;
75837;SDS011;64480;52.040;113.502;2023-12-28T03:50:12;233.93;;;96.35;;
75837;SDS011;64480;52.040;113.502;2023-12-28T03:53:19;164.25;;;76.28;;
75837;SDS011;64480;52.040;113.502;2023-12-28T03:56:23;158.18;;;69.97;;
75837;SDS011;64480;52.040;113.502;2023-12-28T03:59:28;171.70;;;77.97;;
75837;SDS011;64480;52.040;113.502;2023-12-28T04:02:32;162.18;;;78.47;;
75837;SDS011;64480;52.040;113.502;2023-12-28T04:05:36;193.73;;;94.70;;
75837;SDS011;64480;52.040;113.502;2023-12-28T04:08:43;182.27;;;85.18;;
75837;SDS011;64480;52.040;113.502;2023-12-28T04:11:47;270.15;;;117.47;;
75837;SDS011;64480;52.040;113.502;2023-12-28T04:14:54;125.80;;;62.90;;
75837;SDS011;64480;52.040;113.502;2023-12-28T04:17:58;223.32;;;102.38;;
75837;SDS011;64480;52.040;113.502;2023-12-28T04:21:02;161.93;;;73.80;;
75837;SDS011;64480;52.040;113.502;2023-12-28T04:24:06;211.43;;;90.88;;
75837;SDS011;64480;52.040;113.502;2023-12-28T04:27:10;179.52;;;78.60;;
75837;SDS011;64480;52.040;113.502;2023-12-28T04:30:17;191.07;;;81.90;;
75837;SDS011;64480;52.040;113.502;2023-12-28T04:33:22;184.80;;;78.55;;
75837;SDS011;64480;52.040;113.502;2023-12-28T04:36:25;186.27;;;85.13;;
75837;SDS011;64480;52.040;113.502;2023-12-28T04:39:28;182.13;;;78.13;;
75837;SDS011;64480;52.040;113.502;2023-12-28T04:42:32;182.25;;;82.88;;
75837;SDS011;64480;52.040;113.502;2023-12-28T04:45:36;181.65;;;80.07;;
75837;SDS011;64480;52.040;113.502;2023-12-28T04:48:40;204.10;;;88.93;;
75837;SDS011;64480;52.040;113.502;2023-12-28T04:51:44;164.60;;;72.90;;
75837;SDS011;64480;52.040;113.502;2023-12-28T04:54:48;178.60;;;81.45;;
75837;SDS011;64480;52.040;113.502;2023-12-28T04:57:52;185.70;;;83.90;;
75837;SDS011;64480;52.040;113.502;2023-12-28T05:00:56;172.43;;;81.80;;
75837;SDS011;64480;52.040;113.502;2023-12-28T05:04:00;195.02;;;85.70;;
75837;SDS011;64480;52.040;113.502;2023-12-28T05:07:19;209.93;;;94.85;;
75837;SDS011;64480;52.040;113.502;2023-12-28T05:10:23;157.68;;;71.05;;
75837;SDS011;64480;52.040;113.502;2023-12-28T05:13:26;203.32;;;90.55;;
75837;SDS011;64480;52.040;113.502;2023-12-28T05:16:32;171.07;;;80.00;;
75837;SDS011;64480;52.040;113.502;2023-12-28T05:19:35;171.27;;;80.60;;
75837;SDS011;64480;52.040;113.502;2023-12-28T05:22:38;200.02;;;92.15;;
75837;SDS011;64480;52.040;113.502;2023-12-28T05:25:42;213.98;;;103.70;;
75837;SDS011;64480;52.040;113.502;2023-12-28T05:28:45;209.18;;;88.55;;
75837;SDS011;64480;52.040;113.502;2023-12-28T05:31:48;245.60;;;107.28;;
75837;SDS011;64480;52.040;113.502;2023-12-28T05:34:52;230.80;;;102.68;;
75837;SDS011;64480;52.040;113.502;2023-12-28T05:37:56;204.40;;;93.18;;
75837;SDS011;64480;52.040;113.502;2023-12-28T05:41:00;152.57;;;71.38;;
75837;SDS011;64480;52.040;113.502;2023-12-28T05:44:03;218.88;;;96.03;;
75837;SDS011;64480;52.040;113.502;2023-12-28T05:47:07;320.83;;;129.88;;
75837;SDS011;64480;52.040;113.502;2023-12-28T05:50:10;208.60;;;93.43;;
75837;SDS011;64480;52.040;113.502;2023-12-28T05:53:14;192.73;;;86.93;;
75837;SDS011;64480;52.040;113.502;2023-12-28T05:56:21;209.05;;;93.05;;
75837;SDS011;64480;52.040;113.502;2023-12-28T05:59:25;233.68;;;90.82;;
75837;SDS011;64480;52.040;113.502;2023-12-28T06:02:29;193.30;;;91.15;;
75837;SDS011;64480;52.040;113.502;2023-12-28T06:05:33;215.75;;;91.72;;
75837;SDS011;64480;52.040;113.502;2023-12-28T06:08:37;223.23;;;91.30;;
75837;SDS011;64480;52.040;113.502;2023-12-28T06:11:41;228.52;;;98.75;;
75837;SDS011;64480;52.040;113.502;2023-12-28T06:14:45;194.23;;;82.60;;
75837;SDS011;64480;52.040;113.502;2023-12-28T06:17:48;174.15;;;64.15;;
75837;SDS011;64480;52.040;113.502;2023-12-28T06:20:52;176.93;;;76.20;;
75837;SDS011;64480;52.040;113.502;2023-12-28T06:23:56;195.35;;;75.22;;
75837;SDS011;64480;52.040;113.502;2023-12-28T06:26:59;194.35;;;83.20;;
75837;SDS011;64480;52.040;113.502;2023-12-28T06:30:05;213.68;;;89.32;;
75837;SDS011;64480;52.040;113.502;2023-12-28T06:33:10;227.55;;;87.70;;
75837;SDS011;64480;52.040;113.502;2023-12-28T06:36:14;217.70;;;84.43;;
75837;SDS011;64480;52.040;113.502;2023-12-28T06:39:22;208.73;;;92.25;;
75837;SDS011;64480;52.040;113.502;2023-12-28T06:42:26;177.07;;;72.07;;
75837;SDS011;64480;52.040;113.502;2023-12-28T06:45:30;206.60;;;88.13;;
75837;SDS011;64480;52.040;113.502;2023-12-28T06:52:03;238.27;;;107.00;;
75837;SDS011;64480;52.040;113.502;2023-12-28T06:55:10;193.68;;;78.55;;
75837;SDS011;64480;52.040;113.502;2023-12-28T06:58:14;207.82;;;85.65;;
75837;SDS011;64480;52.040;113.502;2023-12-28T07:01:20;200.32;;;84.65;;
75837;SDS011;64480;52.040;113.502;2023-12-28T07:04:24;178.98;;;76.53;;
75837;SDS011;64480;52.040;113.502;2023-12-28T07:07:32;142.18;;;62.50;;
75837;SDS011;64480;52.040;113.502;2023-12-28T07:10:36;150.45;;;65.50;;
75837;SDS011;64480;52.040;113.502;2023-12-28T07:13:40;152.48;;;63.88;;
75837;SDS011;64480;52.040;113.502;2023-12-28T07:16:43;135.18;;;63.67;;
75837;SDS011;64480;52.040;113.502;2023-12-28T07:19:46;181.75;;;74.30;;
75837;SDS011;64480;52.040;113.502;2023-12-28T07:22:50;185.98;;;69.35;;
75837;SDS011;64480;52.040;113.502;2023-12-28T07:25:56;172.40;;;65.97;;
75837;SDS011;64480;52.040;113.502;2023-12-28T07:29:00;187.90;;;78.55;;
75837;SDS011;64480;52.040;113.502;2023-12-28T07:32:05;168.98;;;74.90;;
75837;SDS011;64480;52.040;113.502;2023-12-28T07:35:11;182.95;;;75.22;;
75837;SDS011;64480;52.040;113.502;2023-12-28T07:38:16;164.82;;;70.90;;
75837;SDS011;64480;52.040;113.502;2023-12-28T07:41:22;157.65;;;68.10;;
75837;SDS011;64480;52.040;113.502;2023-12-28T07:44:27;162.32;;;72.93;;
75837;SDS011;64480;52.040;113.502;2023-12-28T07:47:30;174.95;;;73.40;;
75837;SDS011;64480;52.040;113.502;2023-12-28T07:50:38;167.48;;;70.70;;
75837;SDS011;64480;52.040;113.502;2023-12-28T07:53:41;147.90;;;70.20;;
75837;SDS011;64480;52.040;113.502;2023-12-28T07:56:45;165.85;;;73.28;;
75837;SDS011;64480;52.040;113.502;2023-12-28T07:59:49;168.48;;;73.32;;
75837;SDS011;64480;52.040;113.502;2023-12-28T08:02:53;173.57;;;75.30;;
75837;SDS011;64480;52.040;113.502;2023-12-28T08:05:56;195.63;;;75.00;;
75837;SDS011;64480;52.040;113.502;2023-12-28T08:09:00;182.88;;;77.78;;
75837;SDS011;64480;52.040;113.502;2023-12-28T08:12:04;196.82;;;82.55;;
75837;SDS011;64480;52.040;113.502;2023-12-28T08:15:10;174.23;;;74.05;;
75837;SDS011;64480;52.040;113.502;2023-12-28T08:18:14;164.30;;;80.47;;
75837;SDS011;64480;52.040;113.502;2023-12-28T08:21:19;183.68;;;86.78;;
75837;SDS011;64480;52.040;113.502;2023-12-28T08:24:23;167.02;;;76.43;;
75837;SDS011;64480;52.040;113.502;2023-12-28T08:27:27;145.13;;;66.22;;
75837;SDS011;64480;52.040;113.502;2023-12-28T08:30:30;141.15;;;60.55;;
75837;SDS011;64480;52.040;113.502;2023-12-28T08:33:35;131.05;;;64.75;;
75837;SDS011;64480;52.040;113.502;2023-12-28T08:36:41;159.00;;;71.40;;
75837;SDS011;64480;52.040;113.502;2023-12-28T08:39:45;160.82;;;73.70;;
75837;SDS011;64480;52.040;113.502;2023-12-28T08:42:49;151.82;;;64.22;;
75837;SDS011;64480;52.040;113.502;2023-12-28T08:45:53;152.75;;;71.10;;
75837;SDS011;64480;52.040;113.502;2023-12-28T08:48:58;149.95;;;67.15;;
75837;SDS011;64480;52.040;113.502;2023-12-28T08:52:01;190.98;;;68.95;;
75837;SDS011;64480;52.040;113.502;2023-12-28T08:55:06;158.60;;;70.53;;
75837;SDS011;64480;52.040;113.502;2023-12-28T08:58:10;152.45;;;69.10;;
75837;SDS011;64480;52.040;113.502;2023-12-28T09:01:16;156.55;;;72.05;;
75837;SDS011;64480;52.040;113.502;2023-12-28T09:04:22;161.25;;;76.50;;
75837;SDS011;64480;52.040;113.502;2023-12-28T09:07:26;148.15;;;65.95;;
75837;SDS011;64480;52.040;113.502;2023-12-28T09:10:30;156.85;;;72.05;;
75837;SDS011;64480;52.040;113.502;2023-12-28T09:13:34;185.35;;;71.82;;
75837;SDS011;64480;52.040;113.502;2023-12-28T09:16:38;174.48;;;71.50;;
75837;SDS011;64480;52.040;113.502;2023-12-28T09:19:43;187.90;;;73.55;;
75837;SDS011;64480;52.040;113.502;2023-12-28T09:22:47;179.70;;;73.50;;
75837;SDS011;64480;52.040;113.502;2023-12-28T09:25:56;158.52;;;69.38;;
75837;SDS011;64480;52.040;113.502;2023-12-28T09:29:00;154.43;;;71.30;;
75837;SDS011;64480;52.040;113.502;2023-12-28T09:32:03;155.32;;;72.13;;
75837;SDS011;64480;52.040;113.502;2023-12-28T09:35:07;164.38;;;65.72;;
75837;SDS011;64480;52.040;113.502;2023-12-28T09:38:10;149.25;;;71.03;;
75837;SDS011;64480;52.040;113.502;2023-12-28T09:41:15;193.05;;;75.28;;
75837;SDS011;64480;52.040;113.502;2023-12-28T09:44:24;140.07;;;71.60;;
75837;SDS011;64480;52.040;113.502;2023-12-28T09:47:29;181.40;;;74.85;;
75837;SDS011;64480;52.040;113.502;2023-12-28T09:50:36;141.27;;;66.55;;
75837;SDS011;64480;52.040;113.502;2023-12-28T09:53:40;189.23;;;82.05;;
75837;SDS011;64480;52.040;113.502;2023-12-28T09:56:46;151.93;;;67.53;;
75837;SDS011;64480;52.040;113.502;2023-12-28T09:59:51;119.30;;;53.90;;
75837;SDS011;64480;52.040;113.502;2023-12-28T10:02:54;138.70;;;68.93;;
75837;SDS011;64480;52.040;113.502;2023-12-28T10:05:59;151.85;;;69.03;;
75837;SDS011;64480;52.040;113.502;2023-12-28T10:09:03;189.18;;;84.82;;
75837;SDS011;64480;52.040;113.502;2023-12-28T10:12:10;113.30;;;50.60;;
75837;SDS011;64480;52.040;113.502;2023-12-28T10:15:15;82.97;;;35.35;;
75837;SDS011;64480;52.040;113.502;2023-12-28T10:18:22;103.38;;;48.67;;
75837;SDS011;64480;52.040;113.502;2023-12-28T10:21:27;107.10;;;46.47;;
75837;SDS011;64480;52.040;113.502;2023-12-28T10:24:32;127.40;;;54.42;;
75837;SDS011;64480;52.040;113.502;2023-12-28T10:27:39;120.93;;;52.42;;
75837;SDS011;64480;52.040;113.502;2023-12-28T10:30:46;120.05;;;50.80;;
75837;SDS011;64480;52.040;113.502;2023-12-28T10:33:50;167.32;;;75.35;;
75837;SDS011;64480;52.040;113.502;2023-12-28T10:37:06;197.95;;;99.05;;
75837;SDS011;64480;52.040;113.502;2023-12-28T10:40:12;237.98;;;107.13;;
75837;SDS011;64480;52.040;113.502;2023-12-28T10:43:23;239.73;;;111.35;;
75837;SDS011;64480;52.040;113.502;2023-12-28T10:46:27;158.65;;;71.68;;
75837;SDS011;64480;52.040;113.502;2023-12-28T10:49:34;157.88;;;67.70;;
75837;SDS011;64480;52.040;113.502;2023-12-28T10:52:41;149.65;;;68.72;;
75837;SDS011;64480;52.040;113.502;2023-12-28T11:02:51;169.18;;;82.63;;
75837;SDS011;64480;52.040;113.502;2023-12-28T11:05:55;236.73;;;96.82;;
75837;SDS011;64480;52.040;113.502;2023-12-28T11:09:00;199.30;;;86.13;;
75837;SDS011;64480;52.040;113.502;2023-12-28T11:12:09;235.00;;;107.88;;
75837;SDS011;64480;52.040;113.502;2023-12-28T11:15:15;186.70;;;81.53;;
75837;SDS011;64480;52.040;113.502;2023-12-28T11:18:23;307.58;;;150.52;;
75837;SDS011;64480;52.040;113.502;2023-12-28T11:21:31;236.35;;;113.95;;
75837;SDS011;64480;52.040;113.502;2023-12-28T11:24:36;229.05;;;114.72;;
75837;SDS011;64480;52.040;113.502;2023-12-28T11:27:40;253.30;;;118.97;;
75837;SDS011;64480;52.040;113.502;2023-12-28T11:30:44;363.92;;;160.93;;
75837;SDS011;64480;52.040;113.502;2023-12-28T11:33:51;362.33;;;164.77;;
75837;SDS011;64480;52.040;113.502;2023-12-28T11:36:57;237.80;;;126.03;;
75837;SDS011;64480;52.040;113.502;2023-12-28T11:40:09;261.30;;;125.55;;
75837;SDS011;64480;52.040;113.502;2023-12-28T11:43:22;185.93;;;94.68;;
75837;SDS011;64480;52.040;113.502;2023-12-28T11:46:28;255.02;;;114.03;;
75837;SDS011;64480;52.040;113.502;2023-12-28T11:49:31;236.02;;;113.07;;
75837;SDS011;64480;52.040;113.502;2023-12-28T11:52:36;267.65;;;128.90;;
75837;SDS011;64480;52.040;113.502;2023-12-28T11:55:40;374.48;;;158.38;;
75837;SDS011;64480;52.040;113.502;2023-12-28T11:58:44;257.52;;;110.70;;
75837;SDS011;64480;52.040;113.502;2023-12-28T12:01:52;248.13;;;117.63;;
75837;SDS011;64480;52.040;113.502;2023-12-28T12:04:56;273.48;;;124.13;;
75837;SDS011;64480;52.040;113.502;2023-12-28T12:08:00;238.90;;;116.55;;
75837;SDS011;64480;52.040;113.502;2023-12-28T12:11:05;265.15;;;130.45;;
75837;SDS011;64480;52.040;113.502;2023-12-28T12:14:10;245.88;;;112.47;;
75837;SDS011;64480;52.040;113.502;2023-12-28T12:17:14;130.80;;;81.68;;
75837;SDS011;64480;52.040;113.502;2023-12-28T12:20:18;202.45;;;91.18;;
75837;SDS011;64480;52.040;113.502;2023-12-28T12:23:25;238.40;;;108.95;;
75837;SDS011;64480;52.040;113.502;2023-12-28T12:26:29;218.90;;;104.57;;
75837;SDS011;64480;52.040;113.502;2023-12-28T12:29:34;266.77;;;118.43;;
75837;SDS011;64480;52.040;113.502;2023-12-28T12:32:38;197.70;;;84.95;;
75837;SDS011;64480;52.040;113.502;2023-12-28T12:35:46;193.60;;;88.05;;
75837;SDS011;64480;52.040;113.502;2023-12-28T12:38:51;168.10;;;95.20;;
75837;SDS011;64480;52.040;113.502;2023-12-28T12:41:55;248.25;;;113.18;;
75837;SDS011;64480;52.040;113.502;2023-12-28T12:45:00;153.30;;;95.25;;
75837;SDS011;64480;52.040;113.502;2023-12-28T12:48:04;208.63;;;103.28;;
75837;SDS011;64480;52.040;113.502;2023-12-28T12:51:10;187.48;;;87.15;;
75837;SDS011;64480;52.040;113.502;2023-12-28T12:54:16;224.77;;;111.72;;
75837;SDS011;64480;52.040;113.502;2023-12-28T12:57:27;184.95;;;88.32;;
75837;SDS011;64480;52.040;113.502;2023-12-28T13:00:32;218.27;;;91.88;;
75837;SDS011;64480;52.040;113.502;2023-12-28T13:03:39;165.52;;;81.15;;
75837;SDS011;64480;52.040;113.502;2023-12-28T13:06:46;157.05;;;77.93;;
75837;SDS011;64480;52.040;113.502;2023-12-28T13:09:51;193.95;;;88.53;;
75837;SDS011;64480;52.040;113.502;2023-12-28T13:12:55;130.40;;;71.45;;
75837;SDS011;64480;52.040;113.502;2023-12-28T13:15:59;174.80;;;90.53;;
75837;SDS011;64480;52.040;113.502;2023-12-28T13:19:03;203.80;;;116.47;;
75837;SDS011;64480;52.040;113.502;2023-12-28T13:22:08;215.00;;;99.20;;
75837;SDS011;64480;52.040;113.502;2023-12-28T13:25:12;165.02;;;81.93;;
75837;SDS011;64480;52.040;113.502;2023-12-28T13:28:16;154.65;;;88.97;;
75837;SDS011;64480;52.040;113.502;2023-12-28T13:31:20;177.32;;;90.18;;
75837;SDS011;64480;52.040;113.502;2023-12-28T13:34:29;183.23;;;97.43;;
75837;SDS011;64480;52.040;113.502;2023-12-28T13:37:33;221.82;;;103.28;;
75837;SDS011;64480;52.040;113.502;2023-12-28T13:40:37;205.40;;;108.65;;
75837;SDS011;64480;52.040;113.502;2023-12-28T13:43:41;214.00;;;102.70;;
75837;SDS011;64480;52.040;113.502;2023-12-28T13:46:44;294.95;;;143.75;;
75837;SDS011;64480;52.040;113.502;2023-12-28T13:49:49;243.98;;;116.35;;
75837;SDS011;64480;52.040;113.502;2023-12-28T13:52:52;191.30;;;95.60;;
75837;SDS011;64480;52.040;113.502;2023-12-28T13:55:56;206.82;;;121.03;;
75837;SDS011;64480;52.040;113.502;2023-12-28T13:59:00;197.60;;;97.47;;
75837;SDS011;64480;52.040;113.502;2023-12-28T14:02:05;203.32;;;101.72;;
75837;SDS011;64480;52.040;113.502;2023-12-28T14:05:11;223.05;;;106.28;;
75837;SDS011;64480;52.040;113.502;2023-12-28T14:08:16;220.43;;;114.90;;
75837;SDS011;64480;52.040;113.502;2023-12-28T14:11:20;146.82;;;80.88;;
75837;SDS011;64480;52.040;113.502;2023-12-28T14:14:26;84.53;;;44.90;;
75837;SDS011;64480;52.040;113.502;2023-12-28T14:17:29;148.32;;;87.55;;
75837;SDS011;64480;52.040;113.502;2023-12-28T14:20:34;245.73;;;120.75;;
75837;SDS011;64480;52.040;113.502;2023-12-28T14:23:37;222.32;;;112.25;;
75837;SDS011;64480;52.040;113.502;2023-12-28T14:26:41;218.57;;;111.20;;
75837;SDS011;64480;52.040;113.502;2023-12-28T14:29:48;333.90;;;138.80;;
75837;SDS011;64480;52.040;113.502;2023-12-28T14:32:54;203.07;;;107.70;;
75837;SDS011;64480;52.040;113.502;2023-12-28T14:35:58;276.90;;;116.28;;
75837;SDS011;64480;52.040;113.502;2023-12-28T14:39:04;227.15;;;96.07;;
75837;SDS011;64480;52.040;113.502;2023-12-28T14:42:08;212.90;;;109.95;;
75837;SDS011;64480;52.040;113.502;2023-12-28T14:45:12;280.63;;;122.55;;
75837;SDS011;64480;52.040;113.502;2023-12-28T14:48:16;169.18;;;86.55;;
75837;SDS011;64480;52.040;113.502;2023-12-28T14:51:20;203.13;;;95.55;;
75837;SDS011;64480;52.040;113.502;2023-12-28T14:54:27;167.45;;;98.53;;
75837;SDS011;64480;52.040;113.502;2023-12-28T14:57:31;131.77;;;90.18;;
75837;SDS011;64480;52.040;113.502;2023-12-28T15:00:34;249.27;;;119.95;;
75837;SDS011;64480;52.040;113.502;2023-12-28T15:03:37;181.25;;;93.15;;
75837;SDS011;64480;52.040;113.502;2023-12-28T15:06:43;222.60;;;104.13;;
75837;SDS011;64480;52.040;113.502;2023-12-28T15:09:46;274.15;;;131.25;;
75837;SDS011;64480;52.040;113.502;2023-12-28T15:12:50;259.10;;;108.85;;
75837;SDS011;64480;52.040;113.502;2023-12-28T15:15:54;273.45;;;126.90;;
75837;SDS011;64480;52.040;113.502;2023-12-28T15:18:58;212.02;;;104.97;;
75837;SDS011;64480;52.040;113.502;2023-12-28T15:22:02;164.32;;;86.88;;
75837;SDS011;64480;52.040;113.502;2023-12-28T15:25:08;199.85;;;94.43;;
75837;SDS011;64480;52.040;113.502;2023-12-28T15:28:12;253.57;;;117.88;;
75837;SDS011;64480;52.040;113.502;2023-12-28T15:31:16;248.10;;;107.68;;
75837;SDS011;64480;52.040;113.502;2023-12-28T15:34:21;179.27;;;93.40;;
75837;SDS011;64480;52.040;113.502;2023-12-28T15:37:27;221.13;;;109.22;;
75837;SDS011;64480;52.040;113.502;2023-12-28T15:40:31;206.75;;;100.63;;
75837;SDS011;64480;52.040;113.502;2023-12-28T15:43:34;192.43;;;98.25;;
75837;SDS011;64480;52.040;113.502;2023-12-28T15:46:37;203.60;;;95.28;;
75837;SDS011;64480;52.040;113.502;2023-12-28T15:49:41;146.38;;;75.55;;
75837;SDS011;64480;52.040;113.502;2023-12-28T15:52:45;198.50;;;89.55;;
75837;SDS011;64480;52.040;113.502;2023-12-28T15:55:48;138.85;;;69.15;;
75837;SDS011;64480;52.040;113.502;2023-12-28T15:59:10;146.60;;;65.85;;
75837;SDS011;64480;52.040;113.502;2023-12-28T16:02:13;138.20;;;57.72;;
75837;SDS011;64480;52.040;113.502;2023-12-28T16:05:18;166.13;;;72.28;;
75837;SDS011;64480;52.040;113.502;2023-12-28T16:08:27;89.65;;;47.90;;
75837;SDS011;64480;52.040;113.502;2023-12-28T16:11:30;66.05;;;38.72;;
75837;SDS011;64480;52.040;113.502;2023-12-28T16:14:35;47.20;;;29.90;;
75837;SDS011;64480;52.040;113.502;2023-12-28T16:17:40;118.68;;;46.33;;
75837;SDS011;64480;52.040;113.502;2023-12-28T16:20:45;54.17;;;32.13;;
75837;SDS011;64480;52.040;113.502;2023-12-28T16:23:49;85.45;;;37.80;;
75837;SDS011;64480;52.040;113.502;2023-12-28T16:26:53;95.82;;;39.35;;
75837;SDS011;64480;52.040;113.502;2023-12-28T16:29:57;82.90;;;41.95;;
75837;SDS011;64480;52.040;113.502;2023-12-28T16:33:00;90.80;;;37.95;;
75837;SDS011;64480;52.040;113.502;2023-12-28T16:36:04;102.05;;;45.60;;
75837;SDS011;64480;52.040;113.502;2023-12-28T16:39:07;91.03;;;43.75;;
75837;SDS011;64480;52.040;113.502;2023-12-28T16:42:11;114.75;;;42.85;;
75837;SDS011;64480;52.040;113.502;2023-12-28T16:45:14;49.05;;;30.40;;
75837;SDS011;64480;52.040;113.502;2023-12-28T16:48:18;57.83;;;23.70;;
75837;SDS011;64480;52.040;113.502;2023-12-28T16:51:22;32.83;;;20.85;;
75837;SDS011;64480;52.040;113.502;2023-12-28T16:54:28;63.75;;;24.58;;
75837;SDS011;64480;52.040;113.502;2023-12-28T16:57:32;53.38;;;20.17;;
75837;SDS011;64480;52.040;113.502;2023-12-28T17:00:35;44.10;;;25.92;;
75837;SDS011;64480;52.040;113.502;2023-12-28T17:03:39;51.33;;;24.58;;
75837;SDS011;64480;52.040;113.502;2023-12-28T17:06:43;33.85;;;18.00;;
75837;SDS011;64480;52.040;113.502;2023-12-28T17:09:47;64.85;;;35.88;;
75837;SDS011;64480;52.040;113.502;2023-12-28T17:12:55;124.55;;;53.10;;
75837;SDS011;64480;52.040;113.502;2023-12-28T17:16:00;231.52;;;101.05;;
75837;SDS011;64480;52.040;113.502;2023-12-28T17:19:03;183.48;;;97.72;;
75837;SDS011;64480;52.040;113.502;2023-12-28T17:22:07;303.35;;;126.05;;
75837;SDS011;64480;52.040;113.502;2023-12-28T17:28:23;280.33;;;127.32;;
75837;SDS011;64480;52.040;113.502;2023-12-28T17:31:31;164.35;;;92.63;;